Time;durP1;ratioP1;P1;durP2;ratioP2;P2;SDS_P1;SDS_P2;PMS_P1;PMS_P2;Temp;Humidity;BMP_temperature;BMP_pressure;BME280_temperature;BME280_humidity;BME280_pressure;Samples;Min_cycle;Max_cycle;Signal;HPM_P1;HPM_P2
2021/08/18 00:01:02;;;;;;;18.23;11.32;;;14.00;99.90;;;;;;4986035;28;20216;-72
2021/08/18 00:03:31;;;;;;;18.30;11.82;;;14.00;99.90;;;;;;4986540;28;20203;-71
2021/08/18 00:05:58;;;;;;;16.85;11.02;;;14.00;99.90;;;;;;4986841;28;20226;-71
2021/08/18 00:08:25;;;;;;;14.60;10.65;;;14.10;99.90;;;;;;4987185;28;20305;-71
2021/08/18 00:10:53;;;;;;;15.57;11.50;;;14.10;99.90;;;;;;4989882;28;20318;-71
2021/08/18 00:13:23;;;;;;;16.38;10.43;;;14.00;99.90;;;;;;4990370;28;20235;-71
2021/08/18 00:15:52;;;;;;;13.13;10.68;;;14.00;99.90;;;;;;4990502;28;20645;-72
2021/08/18 00:18:19;;;;;;;15.80;10.45;;;14.00;99.90;;;;;;4991107;28;20211;-72
2021/08/18 00:20:47;;;;;;;16.10;10.57;;;14.00;99.90;;;;;;4990672;28;20310;-72
2021/08/18 00:23:14;;;;;;;15.68;11.18;;;13.90;99.90;;;;;;4990073;28;20287;-71
2021/08/18 00:25:41;;;;;;;15.50;10.45;;;13.90;99.90;;;;;;4989034;28;20196;-72
2021/08/18 00:28:11;;;;;;;16.13;10.85;;;13.90;99.90;;;;;;4991272;28;20716;-72
2021/08/18 00:30:39;;;;;;;17.15;10.90;;;13.90;99.90;;;;;;4988186;28;20246;-71
2021/08/18 00:33:06;;;;;;;17.38;10.95;;;13.90;99.90;;;;;;4989797;28;20850;-72
2021/08/18 00:35:33;;;;;;;21.55;11.35;;;13.90;99.90;;;;;;4987594;28;20600;-71
2021/08/18 00:38:02;;;;;;;19.02;11.68;;;13.90;99.90;;;;;;4988906;28;20231;-72
2021/08/18 00:40:29;;;;;;;16.38;11.10;;;13.90;99.90;;;;;;4991025;28;20696;-72
2021/08/18 00:42:56;;;;;;;15.85;10.45;;;14.00;99.90;;;;;;4992211;28;20629;-71
2021/08/18 00:45:23;;;;;;;15.75;11.43;;;14.00;99.90;;;;;;4989059;28;20311;-72
2021/08/18 00:47:52;;;;;;;16.67;11.80;;;14.00;99.90;;;;;;4991726;28;20633;-71
2021/08/18 00:50:21;;;;;;;16.65;10.90;;;14.00;99.90;;;;;;4990703;28;20286;-71
2021/08/18 00:52:48;;;;;;;17.10;11.07;;;14.00;99.90;;;;;;4989157;28;20322;-72
2021/08/18 00:55:19;;;;;;;18.05;12.38;;;14.00;99.90;;;;;;4988738;28;20211;-71
2021/08/18 00:57:46;;;;;;;16.23;11.45;;;14.00;99.90;;;;;;4990355;28;20298;-72
2021/08/18 01:00:15;;;;;;;17.80;11.77;;;14.10;99.90;;;;;;4994474;28;20302;-71
2021/08/18 01:02:43;;;;;;;17.33;12.52;;;14.10;99.90;;;;;;4992388;28;20203;-71
2021/08/18 01:05:13;;;;;;;16.05;10.13;;;14.10;99.90;;;;;;4991789;28;20232;-72
2021/08/18 01:07:40;;;;;;;16.77;10.93;;;14.10;99.90;;;;;;4987890;28;20208;-72
2021/08/18 01:10:10;;;;;;;18.00;11.65;;;14.10;99.90;;;;;;4993709;28;20232;-72
2021/08/18 01:12:40;;;;;;;14.85;10.98;;;14.10;99.90;;;;;;4990520;28;20237;-71
2021/08/18 01:15:10;;;;;;;18.02;11.48;;;14.20;99.90;;;;;;4991214;28;20295;-72
2021/08/18 01:17:41;;;;;;;18.45;11.25;;;14.10;99.90;;;;;;4992655;28;20664;-71
2021/08/18 01:20:10;;;;;;;16.35;10.98;;;14.20;99.90;;;;;;4990003;28;20200;-72
2021/08/18 01:22:37;;;;;;;15.77;10.90;;;14.20;99.90;;;;;;4988363;28;20294;-72
2021/08/18 01:25:05;;;;;;;17.77;10.85;;;14.10;99.90;;;;;;4990800;28;20258;-72
2021/08/18 01:27:33;;;;;;;18.55;12.00;;;14.10;99.90;;;;;;4991138;28;20207;-72
2021/08/18 01:30:01;;;;;;;16.30;11.35;;;14.20;99.90;;;;;;4991430;28;20239;-71
2021/08/18 01:32:28;;;;;;;15.55;10.85;;;14.20;99.90;;;;;;4984185;28;20274;-72
2021/08/18 01:34:55;;;;;;;18.75;11.45;;;14.10;99.90;;;;;;4996344;28;20243;-71
2021/08/18 01:37:22;;;;;;;18.38;11.70;;;14.10;99.90;;;;;;4989731;28;20294;-72
2021/08/18 01:39:49;;;;;;;14.95;10.95;;;14.10;99.90;;;;;;4989332;28;20306;-72
2021/08/18 01:42:16;;;;;;;17.75;11.52;;;14.20;99.90;;;;;;4991628;28;20651;-72
2021/08/18 01:44:42;;;;;;;17.50;11.43;;;14.20;99.90;;;;;;4989176;28;20227;-72
2021/08/18 01:47:13;;;;;;;17.83;11.38;;;14.20;99.90;;;;;;4991473;28;20227;-72
2021/08/18 01:49:39;;;;;;;14.77;10.35;;;14.20;99.90;;;;;;4994013;28;20652;-72
2021/08/18 01:52:08;;;;;;;18.05;12.60;;;14.20;99.90;;;;;;4988342;28;20327;-72
2021/08/18 01:54:35;;;;;;;18.08;11.15;;;14.20;99.90;;;;;;4988288;28;20212;-72
2021/08/18 01:57:05;;;;;;;19.27;11.88;;;14.10;99.90;;;;;;4988788;28;20217;-72
2021/08/18 01:59:32;;;;;;;18.50;11.63;;;14.10;99.90;;;;;;4992980;28;20302;-72
2021/08/18 02:01:58;;;;;;;14.88;11.23;;;14.20;99.90;;;;;;4992589;28;20297;-72
2021/08/18 02:04:27;;;;;;;15.82;11.70;;;14.20;99.90;;;;;;4994212;28;20294;-71
2021/08/18 02:06:54;;;;;;;19.10;12.15;;;14.20;99.90;;;;;;4989083;28;20275;-72
2021/08/18 02:09:20;;;;;;;22.17;12.13;;;14.20;99.90;;;;;;4990938;28;20306;-72
2021/08/18 02:11:47;;;;;;;17.45;13.23;;;14.20;99.90;;;;;;4993524;28;20282;-72
2021/08/18 02:14:14;;;;;;;16.70;12.55;;;14.20;99.90;;;;;;4991675;28;20262;-73
2021/08/18 02:16:41;;;;;;;20.48;13.20;;;14.30;99.90;;;;;;4986899;28;20290;-72
2021/08/18 02:19:08;;;;;;;18.90;11.77;;;14.40;99.90;;;;;;4992172;28;20283;-72
2021/08/18 02:21:36;;;;;;;18.00;13.50;;;14.40;99.90;;;;;;4988331;28;20243;-72
2021/08/18 02:24:03;;;;;;;15.77;11.45;;;14.40;99.90;;;;;;4991183;28;20294;-73
2021/08/18 02:26:30;;;;;;;17.00;11.15;;;14.40;99.90;;;;;;4987005;28;20204;-73
2021/08/18 02:28:57;;;;;;;17.27;12.43;;;14.40;99.90;;;;;;4988521;28;20207;-74
2021/08/18 02:31:27;;;;;;;17.17;12.45;;;14.40;99.90;;;;;;4983713;28;20322;-73
2021/08/18 02:33:54;;;;;;;17.77;12.43;;;14.40;99.90;;;;;;4989212;28;20211;-73
2021/08/18 02:36:20;;;;;;;18.00;12.88;;;14.40;99.90;;;;;;4994982;28;20212;-72
2021/08/18 02:38:49;;;;;;;19.52;14.20;;;14.40;99.90;;;;;;4987834;28;20382;-72
2021/08/18 02:41:16;;;;;;;16.48;11.48;;;14.40;99.90;;;;;;4990264;28;20290;-72
2021/08/18 02:43:42;;;;;;;20.20;12.68;;;14.40;99.90;;;;;;4988248;28;20282;-73
2021/08/18 02:46:09;;;;;;;15.38;11.95;;;14.40;99.90;;;;;;4991718;28;20219;-72
2021/08/18 02:48:36;;;;;;;18.20;12.50;;;14.50;99.90;;;;;;4988282;28;20302;-72
2021/08/18 02:51:03;;;;;;;19.23;13.25;;;14.40;99.90;;;;;;4992562;28;20272;-73
2021/08/18 02:53:30;;;;;;;17.88;14.32;;;14.40;99.90;;;;;;4988497;28;20231;-72
2021/08/18 02:55:58;;;;;;;17.70;12.32;;;14.40;99.90;;;;;;4989032;28;20635;-73
2021/08/18 02:58:25;;;;;;;16.75;12.65;;;14.40;99.90;;;;;;4985255;28;20234;-72
2021/08/18 03:00:52;;;;;;;16.10;12.43;;;14.40;99.90;;;;;;4991587;28;20674;-72
2021/08/18 03:03:19;;;;;;;14.40;11.70;;;14.40;99.90;;;;;;4987444;28;20624;-73
2021/08/18 03:05:46;;;;;;;16.48;12.25;;;14.30;99.90;;;;;;4986232;28;20294;-73
2021/08/18 03:08:13;;;;;;;18.08;12.98;;;14.40;99.90;;;;;;4988776;28;20199;-72
2021/08/18 03:10:40;;;;;;;17.58;12.18;;;14.40;99.90;;;;;;4987892;28;20239;-72
2021/08/18 03:13:08;;;;;;;18.80;12.45;;;14.40;99.90;;;;;;4988197;28;20669;-72
2021/08/18 03:15:35;;;;;;;18.70;12.48;;;14.40;99.90;;;;;;4985580;28;20286;-72
2021/08/18 03:18:02;;;;;;;17.13;13.68;;;14.30;99.90;;;;;;4990151;28;20620;-72
2021/08/18 03:20:29;;;;;;;16.10;11.35;;;14.40;99.90;;;;;;4987652;28;20294;-72
2021/08/18 03:22:56;;;;;;;18.63;13.38;;;14.40;99.90;;;;;;4987548;28;20243;-72
2021/08/18 03:25:23;;;;;;;13.48;10.82;;;14.40;99.90;;;;;;4985341;28;20200;-72
2021/08/18 03:27:50;;;;;;;16.42;11.25;;;14.50;99.90;;;;;;4985040;28;20239;-72
2021/08/18 03:30:18;;;;;;;17.38;12.85;;;14.50;99.90;;;;;;4986550;28;20289;-72
2021/08/18 03:32:45;;;;;;;16.17;11.85;;;14.40;99.90;;;;;;4985264;28;20330;-72
2021/08/18 03:35:12;;;;;;;15.00;11.43;;;14.40;99.90;;;;;;4984262;28;20239;-72
2021/08/18 03:37:39;;;;;;;15.70;11.60;;;14.40;99.90;;;;;;4992585;28;20243;-72
2021/08/18 03:40:07;;;;;;;17.40;11.80;;;14.40;99.90;;;;;;4988121;28;20258;-72
2021/08/18 03:42:34;;;;;;;16.40;11.25;;;14.30;99.90;;;;;;4990187;28;20302;-72
2021/08/18 03:45:01;;;;;;;15.57;11.77;;;14.40;99.90;;;;;;4990995;28;20298;-72
2021/08/18 03:47:29;;;;;;;15.45;10.98;;;14.40;99.90;;;;;;4992896;28;20303;-72
2021/08/18 03:49:56;;;;;;;14.75;10.45;;;14.40;99.90;;;;;;4987867;28;20283;-72
2021/08/18 03:52:23;;;;;;;12.55;10.52;;;14.40;99.90;;;;;;4990656;28;20255;-72
2021/08/18 03:54:50;;;;;;;14.85;10.25;;;14.40;99.90;;;;;;4994522;28;20878;-73
2021/08/18 03:57:17;;;;;;;15.02;10.98;;;14.40;99.90;;;;;;4988378;28;20299;-72
2021/08/18 03:59:44;;;;;;;12.52;10.70;;;14.50;99.90;;;;;;4991796;28;20642;-72
2021/08/18 04:02:10;;;;;;;15.90;10.48;;;14.40;99.90;;;;;;4994516;28;20291;-72
2021/08/18 04:04:39;;;;;;;17.08;11.05;;;14.40;99.90;;;;;;4990966;28;20267;-72
2021/08/18 04:07:06;;;;;;;13.65;10.40;;;14.40;99.90;;;;;;4991596;28;20236;-72
2021/08/18 04:09:33;;;;;;;11.90;9.77;;;14.30;99.90;;;;;;4989959;28;20752;-73
2021/08/18 04:12:00;;;;;;;13.88;9.38;;;14.40;99.90;;;;;;4991591;28;20235;-72
2021/08/18 04:14:27;;;;;;;14.15;10.23;;;14.40;99.90;;;;;;4992710;28;20302;-72
2021/08/18 04:16:53;;;;;;;16.42;10.60;;;14.40;99.90;;;;;;4992368;28;20231;-73
2021/08/18 04:19:20;;;;;;;18.73;10.57;;;14.40;99.90;;;;;;4989403;28;20200;-73
2021/08/18 04:21:48;;;;;;;12.05;10.20;;;14.40;99.90;;;;;;4993602;28;20243;-73
2021/08/18 04:24:15;;;;;;;14.32;9.55;;;14.30;99.90;;;;;;4994112;28;20295;-73
2021/08/18 04:26:42;;;;;;;16.35;11.02;;;14.40;99.90;;;;;;4992214;28;20745;-73
2021/08/18 04:29:09;;;;;;;14.32;11.05;;;14.40;99.90;;;;;;4993872;28;20235;-72
2021/08/18 04:31:36;;;;;;;14.90;10.80;;;14.40;99.90;;;;;;4989986;28;20207;-72
2021/08/18 04:34:03;;;;;;;16.88;11.18;;;14.40;99.90;;;;;;4997935;28;20249;-73
2021/08/18 04:36:30;;;;;;;13.88;10.30;;;14.40;99.90;;;;;;4991480;28;20235;-73
2021/08/18 04:38:58;;;;;;;16.55;10.45;;;14.40;99.90;;;;;;4992997;28;20322;-73
2021/08/18 04:41:25;;;;;;;13.38;10.35;;;14.40;99.90;;;;;;4994710;28;20748;-72
2021/08/18 04:43:52;;;;;;;14.05;10.93;;;14.30;99.90;;;;;;4989636;28;20290;-73
2021/08/18 04:46:19;;;;;;;12.07;9.98;;;14.40;99.90;;;;;;4991163;28;20290;-73
2021/08/18 04:48:46;;;;;;;13.23;11.00;;;14.40;99.90;;;;;;4991795;28;20311;-73
2021/08/18 04:51:13;;;;;;;12.60;9.65;;;14.50;99.90;;;;;;4988814;28;20212;-72
2021/08/18 04:53:39;;;;;;;15.23;10.43;;;14.50;99.90;;;;;;4991889;28;20263;-72
2021/08/18 04:56:08;;;;;;;13.05;10.43;;;14.50;99.90;;;;;;4991713;28;20216;-73
2021/08/18 04:58:35;;;;;;;14.45;10.70;;;14.50;99.90;;;;;;4988735;28;20211;-72
2021/08/18 05:01:01;;;;;;;12.60;9.35;;;14.50;99.90;;;;;;4988558;28;20212;-74
2021/08/18 05:03:28;;;;;;;15.20;11.55;;;14.50;99.90;;;;;;4993491;28;20230;-73
2021/08/18 05:05:55;;;;;;;13.73;10.30;;;14.50;99.90;;;;;;4992239;28;20631;-73
2021/08/18 05:08:22;;;;;;;16.90;10.82;;;14.50;99.90;;;;;;4989554;28;20318;-73
2021/08/18 05:10:49;;;;;;;11.32;10.15;;;14.50;99.90;;;;;;4994852;28;20212;-73
2021/08/18 05:13:17;;;;;;;12.05;10.15;;;14.50;99.90;;;;;;4990712;28;20241;-73
2021/08/18 05:15:44;;;;;;;12.15;9.82;;;14.50;99.90;;;;;;4990060;28;20576;-70
2021/08/18 05:18:10;;;;;;;12.40;11.10;;;14.50;99.90;;;;;;4988318;28;20199;-70
2021/08/18 05:20:37;;;;;;;16.25;10.45;;;14.60;99.90;;;;;;4991942;28;20233;-69
2021/08/18 05:23:04;;;;;;;12.98;11.27;;;14.60;99.90;;;;;;4989119;28;20561;-69
2021/08/18 05:25:33;;;;;;;13.27;10.50;;;14.60;99.90;;;;;;4992422;28;20306;-69
2021/08/18 05:28:03;;;;;;;11.00;9.55;;;14.60;99.90;;;;;;4986790;28;20567;-69
2021/08/18 05:30:32;;;;;;;11.00;9.57;;;14.70;99.90;;;;;;4991306;28;20307;-70
2021/08/18 05:32:59;;;;;;;11.00;9.13;;;14.70;99.90;;;;;;4988828;28;20228;-69
2021/08/18 05:35:26;;;;;;;14.30;10.18;;;14.70;99.90;;;;;;4989206;28;20215;-69
2021/08/18 05:37:53;;;;;;;12.55;10.05;;;14.70;99.90;;;;;;4991704;28;20218;-70
2021/08/18 05:40:20;;;;;;;12.18;10.68;;;14.70;99.90;;;;;;4991461;28;20203;-69
2021/08/18 05:42:47;;;;;;;13.13;10.68;;;14.70;99.90;;;;;;4993380;28;20298;-69
2021/08/18 05:45:14;;;;;;;14.48;9.63;;;14.70;99.90;;;;;;4994417;28;20204;-69
2021/08/18 05:47:42;;;;;;;11.52;9.68;;;14.70;99.90;;;;;;4988770;28;20678;-69
2021/08/18 05:50:10;;;;;;;12.27;10.13;;;14.80;99.90;;;;;;4990238;28;20227;-69
2021/08/18 05:52:37;;;;;;;11.32;9.43;;;14.90;99.90;;;;;;4990219;28;20235;-69
2021/08/18 05:55:05;;;;;;;12.77;10.02;;;14.90;99.90;;;;;;4988866;28;20207;-69
2021/08/18 05:57:32;;;;;;;12.73;10.20;;;14.90;99.90;;;;;;4988806;28;20293;-69
2021/08/18 05:59:59;;;;;;;10.88;8.95;;;14.90;99.90;;;;;;4984610;28;20213;-70
2021/08/18 06:02:26;;;;;;;13.30;9.80;;;14.90;99.90;;;;;;4989779;28;20212;-70
2021/08/18 06:04:54;;;;;;;14.18;10.20;;;14.90;99.90;;;;;;4991839;28;20225;-70
2021/08/18 06:07:21;;;;;;;12.95;10.40;;;15.00;99.90;;;;;;4994798;28;20238;-70
2021/08/18 06:09:47;;;;;;;14.00;10.75;;;15.00;99.90;;;;;;4989714;28;20212;-70
2021/08/18 06:12:14;;;;;;;12.52;10.65;;;15.10;99.90;;;;;;4986885;28;20226;-69
2021/08/18 06:14:42;;;;;;;12.38;10.85;;;15.20;99.90;;;;;;4992828;28;20202;-70
2021/08/18 06:17:08;;;;;;;12.73;10.20;;;15.20;99.90;;;;;;4991346;28;20645;-69
2021/08/18 06:19:35;;;;;;;14.05;10.70;;;15.20;99.90;;;;;;4992454;28;20218;-70
2021/08/18 06:22:04;;;;;;;13.38;10.35;;;15.20;99.90;;;;;;4993730;28;20311;-70
2021/08/18 06:24:40;;;;;;;11.30;9.35;;;15.20;99.90;;;;;;4988763;28;20200;-69
2021/08/18 06:27:08;;;;;;;11.48;9.70;;;15.30;99.90;;;;;;4987264;28;20220;-69
2021/08/18 06:29:35;;;;;;;13.40;10.80;;;15.40;99.90;;;;;;4987954;28;20210;-70
2021/08/18 06:32:03;;;;;;;13.23;9.95;;;15.50;99.90;;;;;;4986476;28;20208;-69
2021/08/18 06:34:29;;;;;;;11.55;9.60;;;15.60;99.90;;;;;;4985843;28;20234;-70
2021/08/18 06:37:01;;;;;;;13.90;10.90;;;15.60;99.90;;;;;;4989796;28;20203;-69
2021/08/18 06:39:30;;;;;;;11.00;9.90;;;15.90;99.90;;;;;;4988277;28;20215;-69
2021/08/18 06:41:57;;;;;;;15.00;11.45;;;16.00;99.90;;;;;;4987759;28;20673;-69
2021/08/18 06:44:24;;;;;;;10.15;8.88;;;16.10;99.90;;;;;;4988781;28;20200;-69
2021/08/18 06:46:51;;;;;;;13.77;9.80;;;16.20;99.90;;;;;;4993226;28;20211;-69
2021/08/18 06:49:18;;;;;;;13.60;9.02;;;16.20;99.90;;;;;;4987007;28;20200;-69
2021/08/18 06:51:45;;;;;;;16.20;10.88;;;16.20;99.90;;;;;;4987697;28;20200;-69
2021/08/18 06:54:11;;;;;;;13.48;9.70;;;16.20;99.90;;;;;;4995697;28;20237;-69
2021/08/18 06:56:40;;;;;;;11.10;9.63;;;16.30;99.90;;;;;;4988274;28;20295;-69
2021/08/18 06:59:07;;;;;;;10.90;9.13;;;16.30;99.90;;;;;;4987944;28;20214;-69
2021/08/18 07:01:34;;;;;;;11.88;8.90;;;16.40;99.90;;;;;;4986613;28;20748;-69
2021/08/18 07:04:02;;;;;;;9.88;8.80;;;16.50;99.90;;;;;;4988861;28;20214;-69
2021/08/18 07:06:30;;;;;;;10.57;9.25;;;16.50;99.90;;;;;;4991809;28;20685;-68
2021/08/18 07:08:57;;;;;;;10.40;9.15;;;16.50;99.90;;;;;;4987275;28;20219;-70
2021/08/18 07:11:24;;;;;;;9.98;8.48;;;16.70;99.90;;;;;;4985231;28;20199;-70
2021/08/18 07:13:52;;;;;;;9.52;7.90;;;17.00;99.90;;;;;;4987715;28;20233;-69
2021/08/18 07:16:19;;;;;;;8.93;8.00;;;17.40;99.90;;;;;;4989660;28;20307;-69
2021/08/18 07:18:46;;;;;;;9.18;8.23;;;17.70;99.90;;;;;;4988339;28;20211;-70
2021/08/18 07:21:13;;;;;;;8.60;7.75;;;18.00;99.90;;;;;;4987273;28;20295;-69
2021/08/18 07:23:40;;;;;;;7.85;6.60;;;18.10;99.90;;;;;;4986470;28;20588;-69
2021/08/18 07:26:07;;;;;;;7.90;7.20;;;18.30;99.90;;;;;;4987934;28;20602;-70
2021/08/18 07:28:33;;;;;;;9.17;6.90;;;18.50;99.90;;;;;;4988606;28;20447;-69
2021/08/18 07:31:02;;;;;;;8.60;7.40;;;18.40;99.90;;;;;;4988181;28;21295;-69
2021/08/18 07:33:28;;;;;;;7.43;6.60;;;18.30;99.90;;;;;;4988382;28;20589;-70
2021/08/18 07:35:55;;;;;;;7.73;7.03;;;18.20;99.90;;;;;;4989759;28;20467;-70
2021/08/18 07:38:22;;;;;;;7.80;6.23;;;18.10;99.90;;;;;;4990301;28;20829;-70
2021/08/18 07:40:49;;;;;;;8.03;7.27;;;18.30;99.90;;;;;;4993361;28;20581;-70
2021/08/18 07:43:17;;;;;;;8.87;6.60;;;18.40;99.90;;;;;;4991332;28;20469;-70
2021/08/18 07:45:47;;;;;;;6.90;5.90;;;18.40;99.90;;;;;;4987273;28;20963;-70
2021/08/18 07:48:15;;;;;;;7.50;6.80;;;18.40;99.90;;;;;;4991814;28;20474;-70
2021/08/18 07:50:42;;;;;;;7.70;7.00;;;18.50;99.90;;;;;;4994797;28;20464;-70
2021/08/18 07:53:09;;;;;;;8.47;6.43;;;18.70;99.90;;;;;;4996239;28;20582;-69
2021/08/18 07:55:36;;;;;;;6.73;5.50;;;18.90;99.90;;;;;;4985260;28;20496;-71
2021/08/18 07:58:02;;;;;;;6.43;5.70;;;18.90;99.90;;;;;;4986539;28;20462;-69
2021/08/18 08:00:31;;;;;;;7.47;5.37;;;19.00;99.90;;;;;;4988700;28;20473;-69
2021/08/18 08:02:58;;;;;;;4.93;4.47;;;19.10;99.90;;;;;;4986833;28;20470;-69
2021/08/18 08:05:26;;;;;;;5.60;5.10;;;19.20;99.90;;;;;;4990465;28;20471;-68
2021/08/18 08:07:53;;;;;;;5.90;5.37;;;19.10;99.90;;;;;;4988501;28;20475;-69
2021/08/18 08:10:20;;;;;;;4.40;4.00;;;19.10;99.90;;;;;;4988323;28;20477;-69
2021/08/18 08:12:47;;;;;;;5.17;4.67;;;19.10;99.90;;;;;;4985484;28;20555;-69
2021/08/18 08:15:14;;;;;;;4.60;4.20;;;19.20;99.90;;;;;;4989549;28;20501;-69
2021/08/18 08:17:41;;;;;;;5.13;4.70;;;19.30;99.90;;;;;;4984770;28;20574;-70
2021/08/18 08:20:09;;;;;;;5.17;4.20;;;19.20;99.90;;;;;;4985569;28;20589;-69
2021/08/18 08:22:38;;;;;;;6.03;5.43;;;19.40;99.90;;;;;;4989581;28;20466;-69
2021/08/18 08:25:06;;;;;;;5.90;5.30;;;19.40;99.90;;;;;;4992721;28;20556;-69
2021/08/18 08:27:33;;;;;;;5.17;4.67;;;19.40;99.90;;;;;;4989829;28;20462;-69
2021/08/18 08:30:00;;;;;;;3.83;3.40;;;19.30;99.90;;;;;;4985679;28;20503;-69
2021/08/18 08:32:26;;;;;;;3.27;3.07;;;19.30;99.90;;;;;;4998164;28;20466;-70
2021/08/18 08:34:53;;;;;;;3.87;3.50;;;19.40;99.90;;;;;;4989896;28;20597;-69
2021/08/18 08:37:20;;;;;;;3.60;3.30;;;19.40;99.90;;;;;;4993741;28;20470;-69
2021/08/18 08:39:48;;;;;;;3.43;3.13;;;19.40;99.90;;;;;;4991675;28;20552;-69
2021/08/18 08:42:16;;;;;;;3.90;3.60;;;19.40;99.90;;;;;;4992953;28;20565;-70
2021/08/18 08:44:43;;;;;;;3.67;3.37;;;19.40;99.90;;;;;;4990162;28;20561;-69
2021/08/18 08:47:10;;;;;;;4.00;3.63;;;19.20;99.90;;;;;;4989488;28;21025;-70
2021/08/18 08:49:38;;;;;;;3.73;3.40;;;19.30;99.90;;;;;;4993957;28;20813;-70
2021/08/18 08:52:06;;;;;;;3.63;3.33;;;19.30;99.90;;;;;;4988123;28;20463;-69
2021/08/18 08:54:33;;;;;;;3.93;3.57;;;19.40;99.90;;;;;;4992202;28;20616;-69
2021/08/18 08:57:01;;;;;;;3.07;2.87;;;19.30;99.90;;;;;;4990354;28;20473;-69
2021/08/18 08:59:28;;;;;;;3.73;3.10;;;19.20;99.90;;;;;;4987681;28;20517;-69
2021/08/18 09:02:00;;;;;;;3.73;3.43;;;19.00;99.90;;;;;;4995393;28;21038;-69
2021/08/18 09:04:28;;;;;;;3.00;2.80;;;18.80;99.90;;;;;;4993108;28;20481;-69
2021/08/18 09:07:08;;;;;;;3.40;3.10;;;18.60;99.90;;;;;;4989786;28;20466;-70
2021/08/18 09:09:36;;;;;;;3.23;2.93;;;18.40;99.90;;;;;;4988627;28;20610;-70
2021/08/18 09:12:06;;;;;;;3.30;3.00;;;18.30;99.90;;;;;;4992839;28;20502;-70
2021/08/18 09:14:33;;;;;;;3.40;3.10;;;18.20;99.90;;;;;;4995012;28;20556;-70
2021/08/18 09:17:01;;;;;;;2.50;2.30;;;18.20;99.90;;;;;;4991228;28;20459;-69
2021/08/18 09:19:32;;;;;;;3.30;2.80;;;18.50;99.90;;;;;;4995417;28;20465;-69
2021/08/18 09:22:06;;;;;;;2.63;2.20;;;18.70;99.90;;;;;;4989996;28;20479;-69
2021/08/18 09:24:34;;;;;;;2.37;2.20;;;18.60;99.90;;;;;;4989633;28;20497;-68
2021/08/18 09:27:08;;;;;;;3.07;2.17;;;18.70;99.90;;;;;;4987673;28;20467;-69
2021/08/18 09:29:41;;;;;;;2.23;2.13;;;18.80;99.90;;;;;;4986993;28;20577;-68
2021/08/18 09:32:27;;;;;;;2.70;2.40;;;18.60;99.90;;;;;;4987362;28;20557;-69
2021/08/18 09:34:56;;;;;;;2.27;2.07;;;18.50;99.90;;;;;;4990970;28;20508;-68
2021/08/18 09:37:27;;;;;;;2.47;2.27;;;18.40;99.90;;;;;;4989437;28;20557;-68
2021/08/18 09:39:54;;;;;;;2.43;2.23;;;18.30;99.90;;;;;;4992378;28;20578;-69
2021/08/18 09:42:28;;;;;;;2.43;2.23;;;18.30;99.90;;;;;;4989746;28;20983;-68
2021/08/18 09:45:18;;;;;;;2.70;2.50;;;18.40;99.90;;;;;;4988004;28;20461;-69
2021/08/18 09:47:54;;;;;;;2.90;2.60;;;18.40;99.90;;;;;;4994293;28;20527;-69
2021/08/18 09:50:23;;;;;;;2.77;2.57;;;18.30;99.90;;;;;;4990116;28;20478;-70
2021/08/18 09:52:51;;;;;;;2.20;2.10;;;18.30;99.90;;;;;;4993084;28;20501;-69
2021/08/18 09:55:22;;;;;;;1.30;1.20;;;18.20;99.90;;;;;;4988961;28;20521;-69
2021/08/18 09:57:50;;;;;;;2.40;2.20;;;18.10;99.90;;;;;;4990273;28;20466;-69
2021/08/18 10:00:19;;;;;;;1.90;1.80;;;18.00;99.90;;;;;;4990378;28;20486;-69
2021/08/18 10:02:49;;;;;;;2.22;2.13;;;17.80;99.90;;;;;;4988623;28;20557;-69
2021/08/18 10:05:16;;;;;;;2.30;2.10;;;17.80;99.90;;;;;;4990133;28;20657;-69
2021/08/18 10:07:44;;;;;;;1.77;1.67;;;18.00;99.90;;;;;;4987122;28;20459;-69
2021/08/18 10:10:12;;;;;;;1.60;1.50;;;18.40;99.90;;;;;;4987006;28;20466;-69
2021/08/18 10:12:39;;;;;;;1.40;1.30;;;18.70;99.90;;;;;;4996082;28;20556;-69
2021/08/18 10:15:07;;;;;;;1.00;1.00;;;19.40;99.90;;;;;;4991962;28;20487;-69
2021/08/18 10:17:42;;;;;;;1.43;1.33;;;20.10;99.90;;;;;;4997240;28;20557;-69
2021/08/18 10:20:11;;;;;;;1.00;1.00;;;20.90;99.90;;;;;;4992117;28;20464;-69
2021/08/18 10:22:38;;;;;;;1.47;1.07;;;21.30;99.90;;;;;;4990225;28;20951;-69
2021/08/18 10:25:37;;;;;;;1.17;1.17;;;21.20;99.80;;;;;;4989783;28;20459;-69
2021/08/18 10:28:05;;;;;;;1.17;1.10;;;21.00;98.50;;;;;;4986692;28;20574;-70
2021/08/18 10:30:33;;;;;;;0.93;0.93;;;21.00;99.30;;;;;;4992108;28;20976;-70
2021/08/18 10:33:02;;;;;;;1.53;1.30;;;20.90;99.90;;;;;;4988888;28;20471;-68
2021/08/18 10:35:45;;;;;;;1.13;1.13;;;21.00;99.60;;;;;;4989632;28;20568;-68
2021/08/18 10:38:36;;;;;;;1.33;0.77;;;20.90;99.90;;;;;;4990191;28;21151;-68
2021/08/18 10:41:03;;;;;;;3.13;0.90;;;20.90;99.90;;;;;;4987775;28;20475;-70
2021/08/18 10:44:01;;;;;;;1.20;1.10;;;21.50;99.90;;;;;;4990049;28;20562;-70
2021/08/18 10:46:28;;;;;;;1.10;1.10;;;22.20;99.60;;;;;;4989305;28;20466;-70
2021/08/18 10:49:04;;;;;;;0.87;0.87;;;23.10;96.90;;;;;;4989420;28;20582;-69
2021/08/18 10:51:53;;;;;;;1.10;1.10;;;23.10;95.70;;;;;;4984295;28;20476;-69
2021/08/18 10:54:45;;;;;;;1.10;1.00;;;22.80;97.00;;;;;;4990592;28;20585;-69
2021/08/18 10:57:38;;;;;;;1.30;1.20;;;22.50;95.50;;;;;;4991249;28;20463;-70
2021/08/18 11:00:15;;;;;;;1.90;1.37;;;21.70;96.80;;;;;;4991238;28;20481;-69
2021/08/18 11:02:57;;;;;;;1.60;1.50;;;21.20;96.20;;;;;;4985681;28;20463;-68
2021/08/18 11:05:28;;;;;;;1.63;1.53;;;20.50;98.90;;;;;;4986895;28;20462;-67
2021/08/18 11:08:03;;;;;;;1.47;1.37;;;20.10;99.90;;;;;;4982795;28;20586;-66
2021/08/18 11:10:31;;;;;;;1.77;1.30;;;19.90;99.90;;;;;;4986922;28;20466;-66
2021/08/18 11:13:00;;;;;;;1.00;1.00;;;20.20;99.90;;;;;;4987747;28;20470;-67
2021/08/18 11:15:53;;;;;;;1.47;1.17;;;20.30;99.90;;;;;;4971846;28;20976;-67
2021/08/18 11:18:20;;;;;;;1.10;1.10;;;20.50;99.70;;;;;;4986702;28;20458;-67
2021/08/18 11:20:54;;;;;;;1.00;1.00;;;20.60;99.70;;;;;;4985611;28;20470;-67
2021/08/18 11:23:32;;;;;;;0.77;0.77;;;20.70;99.50;;;;;;4987114;28;20493;-67
2021/08/18 11:26:07;;;;;;;0.93;0.93;;;20.70;99.80;;;;;;4990508;28;20512;-67
2021/08/18 11:28:36;;;;;;;1.90;1.10;;;20.80;99.20;;;;;;4989660;28;20940;-67
2021/08/18 11:31:06;;;;;;;1.20;1.10;;;20.80;99.20;;;;;;4986938;28;20537;-67
2021/08/18 11:33:34;;;;;;;1.13;1.13;;;21.00;98.30;;;;;;4986696;28;21011;-67
2021/08/18 11:36:13;;;;;;;1.60;1.50;;;21.00;98.10;;;;;;4988401;28;21019;-67
2021/08/18 11:38:39;;;;;;;1.20;1.20;;;21.20;98.70;;;;;;4987823;28;20466;-67
2021/08/18 11:41:06;;;;;;;1.37;1.27;;;21.20;97.70;;;;;;4985924;28;20913;-67
2021/08/18 11:43:41;;;;;;;1.50;1.50;;;21.00;98.50;;;;;;4988798;28;20459;-67
2021/08/18 11:46:09;;;;;;;1.33;1.33;;;21.00;98.30;;;;;;4987537;28;20469;-67
2021/08/18 11:48:37;;;;;;;1.33;1.30;;;20.80;99.70;;;;;;4987663;28;20560;-67
2021/08/18 11:51:09;;;;;;;1.50;1.40;;;20.80;99.60;;;;;;4986493;28;20509;-67
2021/08/18 11:53:36;;;;;;;1.93;1.83;;;20.80;99.30;;;;;;4983938;28;20475;-67
2021/08/18 11:56:04;;;;;;;1.50;1.50;;;20.80;98.30;;;;;;4981957;28;20509;-67
2021/08/18 11:58:33;;;;;;;2.60;2.43;;;20.80;99.50;;;;;;4987037;28;20462;-67
2021/08/18 12:01:01;;;;;;;1.60;1.50;;;20.80;99.80;;;;;;4988829;28;20525;-67
2021/08/18 12:03:29;;;;;;;1.83;1.73;;;21.00;99.90;;;;;;4984750;28;20537;-67
2021/08/18 12:06:01;;;;;;;2.03;1.93;;;21.00;99.20;;;;;;4987604;28;20891;-67
2021/08/18 12:08:38;;;;;;;2.53;2.33;;;21.50;99.20;;;;;;4988788;28;20478;-67
2021/08/18 12:11:07;;;;;;;1.90;1.80;;;21.90;97.10;;;;;;4989981;28;20465;-67
2021/08/18 12:13:45;;;;;;;1.83;1.73;;;22.00;97.60;;;;;;4990044;28;20478;-67
2021/08/18 12:16:27;;;;;;;1.80;1.70;;;21.90;97.30;;;;;;4989820;28;20500;-67
2021/08/18 12:18:55;;;;;;;2.20;1.90;;;21.80;97.40;;;;;;4990939;28;20478;-67
2021/08/18 12:21:24;;;;;;;2.00;1.90;;;21.60;96.80;;;;;;4992312;28;21077;-67
2021/08/18 12:23:55;;;;;;;1.80;1.70;;;21.70;98.20;;;;;;4989051;28;20470;-67
2021/08/18 12:26:27;;;;;;;2.20;2.10;;;22.00;98.60;;;;;;4985868;28;20465;-67
2021/08/18 12:28:56;;;;;;;1.87;1.77;;;22.60;97.40;;;;;;4988369;28;20466;-67
2021/08/18 12:31:24;;;;;;;1.63;1.53;;;23.10;96.70;;;;;;4987637;28;20476;-67
2021/08/18 12:34:12;;;;;;;5.50;2.17;;;22.60;96.50;;;;;;4994036;28;20978;-67
2021/08/18 12:36:38;;;;;;;1.87;1.77;;;22.50;96.30;;;;;;4985378;28;20465;-67
2021/08/18 12:39:07;;;;;;;1.70;1.60;;;22.50;95.20;;;;;;4991693;28;20458;-67
2021/08/18 12:41:37;;;;;;;1.37;1.37;;;22.20;95.50;;;;;;4993461;28;20470;-67
2021/08/18 12:44:09;;;;;;;1.90;1.80;;;21.80;97.60;;;;;;4988085;28;20490;-67